Time;durP1;ratioP1;P1;durP2;ratioP2;P2;SDS_P1;SDS_P2;PMS_P1;PMS_P2;Temp;Humidity;BMP_temperature;BMP_pressure;BME280_temperature;BME280_humidity;BME280_pressure;Samples;Min_cycle;Max_cycle;Signal;HPM_P1;HPM_P2
2022/02/27 00:00:38;;;;;;;19.15;7.799999;;;;;;;-2.6;50.99023;96440.7;;;;
2022/02/27 00:01:39;;;;;;;19.15;7.799999;;;;;;;-2.6;50.99023;96440.7;;;;
2022/02/27 00:02:40;;;;;;;19.15;7.799999;;;;;;;-2.6;50.99023;96440.7;;;;
2022/02/27 00:03:41;;;;;;;19.15;7.799999;;;;;;;-2.6;50.99023;96440.7;;;;
2022/02/27 00:04:42;;;;;;;19.15;7.799999;;;;;;;-2.6;50.99023;96440.7;;;;
2022/02/27 00:05:42;;;;;;;19.15;7.799999;;;;;;;-2.6;50.99023;96440.7;;;;
2022/02/27 00:06:43;;;;;;;19.15;7.799999;;;;;;;-2.6;50.99023;96440.7;;;;
2022/02/27 00:07:44;;;;;;;19.15;7.799999;;;;;;;-2.6;50.99023;96440.7;;;;
2022/02/27 00:08:44;;;;;;;19.15;7.799999;;;;;;;-2.6;50.99023;96440.7;;;;
2022/02/27 00:09:45;;;;;;;19.15;7.799999;;;;;;;-2.6;50.99023;96440.7;;;;
2022/02/27 00:10:45;;;;;;;19.15;7.799999;;;;;;;-2.6;50.99023;96440.7;;;;
2022/02/27 00:11:48;;;;;;;19.15;7.799999;;;;;;;-2.6;50.99023;96440.7;;;;
2022/02/27 00:12:49;;;;;;;19.15;7.799999;;;;;;;-2.6;50.99023;96440.7;;;;
2022/02/27 00:13:49;;;;;;;19.15;7.799999;;;;;;;-2.6;50.99023;96440.7;;;;
2022/02/27 00:14:50;;;;;;;19.15;7.799999;;;;;;;-2.6;50.99023;96440.7;;;;
2022/02/27 00:15:50;;;;;;;19.15;7.799999;;;;;;;-2.6;50.99023;96440.7;;;;
2022/02/27 00:16:51;;;;;;;19.15;7.799999;;;;;;;-2.6;50.99023;96440.7;;;;
2022/02/27 00:17:51;;;;;;;13.85;6.4;;;;;;;-2.73;51.5498;96434.7;;;;
2022/02/27 00:18:52;;;;;;;13.85;6.4;;;;;;;-2.73;51.5498;96434.7;;;;
2022/02/27 00:19:52;;;;;;;13.85;6.4;;;;;;;-2.73;51.5498;96434.7;;;;
2022/02/27 00:20:53;;;;;;;13.85;6.4;;;;;;;-2.73;51.5498;96434.7;;;;
2022/02/27 00:21:54;;;;;;;13.85;6.4;;;;;;;-2.73;51.5498;96434.7;;;;
2022/02/27 00:22:55;;;;;;;13.85;6.4;;;;;;;-2.73;51.5498;96434.7;;;;
2022/02/27 00:23:56;;;;;;;13.85;6.4;;;;;;;-2.73;51.5498;96434.7;;;;
2022/02/27 00:24:56;;;;;;;13.85;6.4;;;;;;;-2.73;51.5498;96434.7;;;;
2022/02/27 00:25:57;;;;;;;13.85;6.4;;;;;;;-2.73;51.5498;96434.7;;;;
2022/02/27 00:26:58;;;;;;;13.85;6.4;;;;;;;-2.73;51.5498;96434.7;;;;
2022/02/27 00:27:58;;;;;;;13.85;6.4;;;;;;;-2.73;51.5498;96434.7;;;;
2022/02/27 00:29:00;;;;;;;13.85;6.4;;;;;;;-2.73;51.5498;96434.7;;;;
2022/02/27 00:30:00;;;;;;;13.85;6.4;;;;;;;-2.73;51.5498;96434.7;;;;
2022/02/27 00:31:01;;;;;;;13.85;6.4;;;;;;;-2.73;51.5498;96434.7;;;;
2022/02/27 00:32:01;;;;;;;13.85;6.4;;;;;;;-2.73;51.5498;96434.7;;;;
2022/02/27 00:33:02;;;;;;;13.85;6.4;;;;;;;-2.73;51.5498;96434.7;;;;
2022/02/27 00:34:03;;;;;;;13.85;6.4;;;;;;;-2.73;51.5498;96434.7;;;;
2022/02/27 00:35:04;;;;;;;13.85;6.4;;;;;;;-2.73;51.5498;96434.7;;;;
2022/02/27 00:36:06;;;;;;;13.85;6.4;;;;;;;-2.73;51.5498;96434.7;;;;
2022/02/27 00:37:07;;;;;;;13.85;6.4;;;;;;;-2.73;51.5498;96434.7;;;;
2022/02/27 00:38:08;;;;;;;13.85;6.4;;;;;;;-2.73;51.5498;96434.7;;;;
2022/02/27 00:39:10;;;;;;;13.85;6.4;;;;;;;-2.73;51.5498;96434.7;;;;
2022/02/27 00:40:11;;;;;;;13.85;6.4;;;;;;;-2.73;51.5498;96434.7;;;;
2022/02/27 00:41:12;;;;;;;13.85;6.4;;;;;;;-2.73;51.5498;96434.7;;;;
2022/02/27 00:42:12;;;;;;;13.85;6.4;;;;;;;-2.73;51.5498;96434.7;;;;
2022/02/27 00:43:13;;;;;;;13.85;6.4;;;;;;;-2.73;51.5498;96434.7;;;;
2022/02/27 00:44:14;;;;;;;13.85;6.4;;;;;;;-2.73;51.5498;96434.7;;;;
2022/02/27 00:45:14;;;;;;;13.85;6.4;;;;;;;-2.73;51.5498;96434.7;;;;
2022/02/27 00:46:15;;;;;;;13.85;6.4;;;;;;;-2.73;51.5498;96434.7;;;;
2022/02/27 00:47:15;;;;;;;13.85;6.4;;;;;;;-2.73;51.5498;96434.7;;;;
2022/02/27 00:48:16;;;;;;;13.85;6.4;;;;;;;-2.73;51.5498;96434.7;;;;
2022/02/27 00:49:16;;;;;;;13.85;6.4;;;;;;;-2.73;51.5498;96434.7;;;;
2022/02/27 00:50:17;;;;;;;12.2;5.799999;;;;;;;-1.99;51.4502;96432.39;;;;
2022/02/27 00:51:17;;;;;;;12.2;5.799999;;;;;;;-1.99;51.4502;96432.39;;;;
2022/02/27 00:52:22;;;;;;;12.2;5.799999;;;;;;;-1.99;51.4502;96432.39;;;;
2022/02/27 00:53:22;;;;;;;12.2;5.799999;;;;;;;-1.99;51.4502;96432.39;;;;
2022/02/27 00:54:23;;;;;;;12.2;5.799999;;;;;;;-1.99;51.4502;96432.39;;;;
2022/02/27 00:55:23;;;;;;;12.2;5.799999;;;;;;;-1.99;51.4502;96432.39;;;;
2022/02/27 00:56:24;;;;;;;12.2;5.799999;;;;;;;-1.99;51.4502;96432.39;;;;
2022/02/27 00:57:25;;;;;;;12.2;5.799999;;;;;;;-1.99;51.4502;96432.39;;;;
2022/02/27 00:58:25;;;;;;;12.2;5.799999;;;;;;;-1.99;51.4502;96432.39;;;;
2022/02/27 00:59:26;;;;;;;12.2;5.799999;;;;;;;-1.99;51.4502;96432.39;;;;
2022/02/27 01:00:26;;;;;;;12.5;5.849999;;;;;;;-1.83;51.4707;96426.54;;;;
2022/02/27 01:01:26;;;;;;;12.5;5.849999;;;;;;;-1.83;51.4707;96426.54;;;;
2022/02/27 01:02:27;;;;;;;12.5;5.849999;;;;;;;-1.83;51.4707;96426.54;;;;
2022/02/27 01:03:27;;;;;;;12.5;5.849999;;;;;;;-1.83;51.4707;96426.54;;;;
2022/02/27 01:04:28;;;;;;;12.5;5.849999;;;;;;;-1.83;51.4707;96426.54;;;;
2022/02/27 01:05:28;;;;;;;12.5;5.849999;;;;;;;-1.83;51.4707;96426.54;;;;
2022/02/27 01:06:29;;;;;;;12.5;5.849999;;;;;;;-1.83;51.4707;96426.54;;;;
2022/02/27 01:07:29;;;;;;;12.5;5.849999;;;;;;;-1.83;51.4707;96426.54;;;;
2022/02/27 01:08:30;;;;;;;12.5;5.849999;;;;;;;-1.83;51.4707;96426.54;;;;
2022/02/27 01:09:30;;;;;;;12.5;5.849999;;;;;;;-1.83;51.4707;96426.54;;;;
2022/02/27 01:10:31;;;;;;;12.5;5.849999;;;;;;;-1.83;51.4707;96426.54;;;;
2022/02/27 01:11:32;;;;;;;10.3;5.05;;;;;;;-1.54;51.59863;96412.09;;;;
2022/02/27 01:12:33;;;;;;;10.3;5.05;;;;;;;-1.54;51.59863;96412.09;;;;
2022/02/27 01:13:34;;;;;;;10.3;5.05;;;;;;;-1.54;51.59863;96412.09;;;;
2022/02/27 01:14:35;;;;;;;10.3;5.05;;;;;;;-1.54;51.59863;96412.09;;;;
2022/02/27 01:15:35;;;;;;;10.3;5.05;;;;;;;-1.54;51.59863;96412.09;;;;
2022/02/27 01:16:35;;;;;;;10.3;5.05;;;;;;;-1.54;51.59863;96412.09;;;;
2022/02/27 01:17:36;;;;;;;10.3;5.05;;;;;;;-1.54;51.59863;96412.09;;;;
2022/02/27 01:18:37;;;;;;;10.3;5.05;;;;;;;-1.54;51.59863;96412.09;;;;
2022/02/27 01:19:37;;;;;;;10.3;5.05;;;;;;;-1.54;51.59863;96412.09;;;;
2022/02/27 01:20:38;;;;;;;10.3;5.05;;;;;;;-1.54;51.59863;96412.09;;;;
2022/02/27 01:21:38;;;;;;;10.3;5.05;;;;;;;-1.54;51.59863;96412.09;;;;
2022/02/27 01:22:39;;;;;;;10.3;5.05;;;;;;;-1.54;51.59863;96412.09;;;;
2022/02/27 01:23:40;;;;;;;10.3;5.05;;;;;;;-1.54;51.59863;96412.09;;;;
2022/02/27 01:24:41;;;;;;;10.3;5.05;;;;;;;-1.54;51.59863;96412.09;;;;
2022/02/27 01:25:41;;;;;;;10.3;5.05;;;;;;;-1.54;51.59863;96412.09;;;;
2022/02/27 01:26:42;;;;;;;10.3;5.05;;;;;;;-1.54;51.59863;96412.09;;;;
2022/02/27 01:27:42;;;;;;;10.3;5.05;;;;;;;-1.54;51.59863;96412.09;;;;
2022/02/27 01:28:43;;;;;;;10.3;5.05;;;;;;;-1.54;51.59863;96412.09;;;;
2022/02/27 01:29:43;;;;;;;10.3;5.05;;;;;;;-1.54;51.59863;96412.09;;;;
2022/02/27 01:30:44;;;;;;;10.3;5.05;;;;;;;-1.54;51.59863;96412.09;;;;
2022/02/27 01:31:44;;;;;;;10.3;5.05;;;;;;;-1.54;51.59863;96412.09;;;;
2022/02/27 01:32:45;;;;;;;11.3;5.45;;;;;;;-1.2;51.73633;96418.26;;;;
2022/02/27 01:33:45;;;;;;;11.3;5.45;;;;;;;-1.2;51.73633;96418.26;;;;
2022/02/27 01:34:48;;;;;;;11.3;5.45;;;;;;;-1.2;51.73633;96418.26;;;;
2022/02/27 01:35:49;;;;;;;11.3;5.45;;;;;;;-1.2;51.73633;96418.26;;;;
2022/02/27 01:36:49;;;;;;;11.3;5.45;;;;;;;-1.2;51.73633;96418.26;;;;
2022/02/27 01:37:50;;;;;;;11.3;5.45;;;;;;;-1.2;51.73633;96418.26;;;;
2022/02/27 01:38:50;;;;;;;11.3;5.45;;;;;;;-1.2;51.73633;96418.26;;;;
2022/02/27 01:39:51;;;;;;;11.3;5.45;;;;;;;-1.2;51.73633;96418.26;;;;
2022/02/27 01:40:51;;;;;;;11.3;5.45;;;;;;;-1.2;51.73633;96418.26;;;;
2022/02/27 01:41:52;;;;;;;11.3;5.45;;;;;;;-1.2;51.73633;96418.26;;;;
2022/02/27 01:42:52;;;;;;;11.3;5.45;;;;;;;-1.2;51.73633;96418.26;;;;
2022/02/27 01:43:53;;;;;;;10.35;5.2;;;;;;;-1.39;52.0166;96409.38;;;;
2022/02/27 01:44:54;;;;;;;10.35;5.2;;;;;;;-1.39;52.0166;96409.38;;;;
2022/02/27 01:45:55;;;;;;;10.35;5.2;;;;;;;-1.39;52.0166;96409.38;;;;
2022/02/27 01:46:55;;;;;;;10.35;5.2;;;;;;;-1.39;52.0166;96409.38;;;;
2022/02/27 01:47:57;;;;;;;10.35;5.2;;;;;;;-1.39;52.0166;96409.38;;;;
2022/02/27 01:48:58;;;;;;;10.35;5.2;;;;;;;-1.39;52.0166;96409.38;;;;
2022/02/27 01:49:58;;;;;;;10.35;5.2;;;;;;;-1.39;52.0166;96409.38;;;;
2022/02/27 01:50:59;;;;;;;10.35;5.2;;;;;;;-1.39;52.0166;96409.38;;;;
2022/02/27 01:51:59;;;;;;;10.35;5.2;;;;;;;-1.39;52.0166;96409.38;;;;
2022/02/27 01:53:00;;;;;;;10.35;5.2;;;;;;;-1.39;52.0166;96409.38;;;;
2022/02/27 01:54:01;;;;;;;11.8;5.400001;;;;;;;-1.56;52.4043;96403.39;;;;
2022/02/27 01:55:01;;;;;;;11.8;5.400001;;;;;;;-1.56;52.4043;96403.39;;;;
2022/02/27 01:56:04;;;;;;;11.8;5.400001;;;;;;;-1.56;52.4043;96403.39;;;;
2022/02/27 01:57:05;;;;;;;11.8;5.400001;;;;;;;-1.56;52.4043;96403.39;;;;
2022/02/27 01:58:06;;;;;;;11.8;5.400001;;;;;;;-1.56;52.4043;96403.39;;;;
2022/02/27 01:59:06;;;;;;;11.8;5.400001;;;;;;;-1.56;52.4043;96403.39;;;;
2022/02/27 02:00:07;;;;;;;11.8;5.400001;;;;;;;-1.56;52.4043;96403.39;;;;
2022/02/27 02:01:09;;;;;;;11.8;5.400001;;;;;;;-1.56;52.4043;96403.39;;;;
2022/02/27 02:02:10;;;;;;;11.8;5.400001;;;;;;;-1.56;52.4043;96403.39;;;;
2022/02/27 02:03:10;;;;;;;11.8;5.400001;;;;;;;-1.56;52.4043;96403.39;;;;
2022/02/27 02:04:11;;;;;;;11.8;5.400001;;;;;;;-1.56;52.4043;96403.39;;;;
2022/02/27 02:05:12;;;;;;;10.9;5.149999;;;;;;;-1.7;52.59473;96404.67;;;;
2022/02/27 02:06:14;;;;;;;10.9;5.149999;;;;;;;-1.7;52.59473;96404.67;;;;
2022/02/27 02:07:14;;;;;;;10.9;5.149999;;;;;;;-1.7;52.59473;96404.67;;;;
2022/02/27 02:08:15;;;;;;;10.9;5.149999;;;;;;;-1.7;52.59473;96404.67;;;;
2022/02/27 02:09:16;;;;;;;10.9;5.149999;;;;;;;-1.7;52.59473;96404.67;;;;
2022/02/27 02:10:16;;;;;;;10.9;5.149999;;;;;;;-1.7;52.59473;96404.67;;;;
2022/02/27 02:11:17;;;;;;;10.9;5.149999;;;;;;;-1.7;52.59473;96404.67;;;;
2022/02/27 02:12:17;;;;;;;10.9;5.149999;;;;;;;-1.7;52.59473;96404.67;;;;
2022/02/27 02:13:19;;;;;;;10.9;5.149999;;;;;;;-1.7;52.59473;96404.67;;;;
2022/02/27 02:14:19;;;;;;;10.9;5.149999;;;;;;;-1.7;52.59473;96404.67;;;;
2022/02/27 02:15:20;;;;;;;9.200001;4.85;;;;;;;-1.94;52.90039;96391.33;;;;
2022/02/27 02:16:21;;;;;;;9.200001;4.85;;;;;;;-1.94;52.90039;96391.33;;;;
2022/02/27 02:17:21;;;;;;;9.200001;4.85;;;;;;;-1.94;52.90039;96391.33;;;;
2022/02/27 02:18:22;;;;;;;9.200001;4.85;;;;;;;-1.94;52.90039;96391.33;;;;
2022/02/27 02:19:22;;;;;;;9.200001;4.85;;;;;;;-1.94;52.90039;96391.33;;;;
2022/02/27 02:20:24;;;;;;;9.200001;4.85;;;;;;;-1.94;52.90039;96391.33;;;;
2022/02/27 02:21:26;;;;;;;9.200001;4.85;;;;;;;-1.94;52.90039;96391.33;;;;
2022/02/27 02:22:27;;;;;;;9.200001;4.85;;;;;;;-1.94;52.90039;96391.33;;;;
2022/02/27 02:23:27;;;;;;;9.200001;4.85;;;;;;;-1.94;52.90039;96391.33;;;;
2022/02/27 02:24:28;;;;;;;9.200001;4.85;;;;;;;-1.94;52.90039;96391.33;;;;
2022/02/27 02:25:28;;;;;;;9.200001;4.85;;;;;;;-1.94;52.90039;96391.33;;;;
2022/02/27 02:26:29;;;;;;;7.75;4.75;;;;;;;-2.21;53.2002;96387.52;;;;
2022/02/27 02:27:31;;;;;;;7.75;4.75;;;;;;;-2.21;53.2002;96387.52;;;;
2022/02/27 02:28:32;;;;;;;7.75;4.75;;;;;;;-2.21;53.2002;96387.52;;;;
2022/02/27 02:29:32;;;;;;;7.75;4.75;;;;;;;-2.21;53.2002;96387.52;;;;
2022/02/27 02:30:33;;;;;;;7.75;4.75;;;;;;;-2.21;53.2002;96387.52;;;;
2022/02/27 02:31:34;;;;;;;7.75;4.75;;;;;;;-2.21;53.2002;96387.52;;;;
2022/02/27 02:32:35;;;;;;;7.75;4.75;;;;;;;-2.21;53.2002;96387.52;;;;
2022/02/27 02:33:46;;;;;;;7.75;4.75;;;;;;;-2.21;53.2002;96387.52;;;;
2022/02/27 02:34:47;;;;;;;7.75;4.75;;;;;;;-2.21;53.2002;96387.52;;;;
2022/02/27 02:35:48;;;;;;;7.75;4.75;;;;;;;-2.21;53.2002;96387.52;;;;
2022/02/27 02:36:48;;;;;;;7.75;4.75;;;;;;;-2.21;53.2002;96387.52;;;;
2022/02/27 02:37:50;;;;;;;7.75;4.75;;;;;;;-2.21;53.2002;96387.52;;;;
2022/02/27 02:38:51;;;;;;;7.75;4.75;;;;;;;-2.21;53.2002;96387.52;;;;
2022/02/27 02:39:53;;;;;;;7.75;4.75;;;;;;;-2.21;53.2002;96387.52;;;;
2022/02/27 02:40:54;;;;;;;7.75;4.75;;;;;;;-2.21;53.2002;96387.52;;;;
2022/02/27 02:41:55;;;;;;;7.75;4.75;;;;;;;-2.21;53.2002;96387.52;;;;
2022/02/27 02:42:57;;;;;;;7.75;4.75;;;;;;;-2.21;53.2002;96387.52;;;;
2022/02/27 02:43:57;;;;;;;7.75;4.75;;;;;;;-2.21;53.2002;96387.52;;;;
2022/02/27 02:44:58;;;;;;;7.75;4.75;;;;;;;-2.21;53.2002;96387.52;;;;
2022/02/27 02:45:59;;;;;;;7.75;4.75;;;;;;;-2.21;53.2002;96387.52;;;;
2022/02/27 02:46:59;;;;;;;7.75;4.75;;;;;;;-2.21;53.2002;96387.52;;;;
2022/02/27 02:48:00;;;;;;;7.75;4.75;;;;;;;-2.21;53.2002;96387.52;;;;
2022/02/27 02:49:00;;;;;;;7.75;4.75;;;;;;;-2.21;53.2002;96387.52;;;;
2022/02/27 02:50:01;;;;;;;7.75;4.75;;;;;;;-2.21;53.2002;96387.52;;;;
2022/02/27 02:51:02;;;;;;;7.75;4.75;;;;;;;-2.21;53.2002;96387.52;;;;
2022/02/27 02:52:02;;;;;;;7.75;4.75;;;;;;;-2.21;53.2002;96387.52;;;;
2022/02/27 02:53:04;;;;;;;7.75;4.75;;;;;;;-2.21;53.2002;96387.52;;;;
2022/02/27 02:54:04;;;;;;;7.75;4.75;;;;;;;-2.21;53.2002;96387.52;;;;
2022/02/27 02:55:06;;;;;;;7.75;4.75;;;;;;;-2.21;53.2002;96387.52;;;;
2022/02/27 02:56:09;;;;;;;7.75;4.75;;;;;;;-2.21;53.2002;96387.52;;;;
2022/02/27 02:57:10;;;;;;;7.75;4.75;;;;;;;-2.21;53.2002;96387.52;;;;
2022/02/27 02:58:11;;;;;;;11.55;4.8;;;;;;;-2.87;54.05566;96368.11;;;;
2022/02/27 02:59:11;;;;;;;11.55;4.8;;;;;;;-2.87;54.05566;96368.11;;;;
2022/02/27 03:00:12;;;;;;;11.55;4.8;;;;;;;-2.87;54.05566;96368.11;;;;
2022/02/27 03:01:14;;;;;;;11.55;4.8;;;;;;;-2.87;54.05566;96368.11;;;;
2022/02/27 03:02:17;;;;;;;11.55;4.8;;;;;;;-2.87;54.05566;96368.11;;;;
2022/02/27 03:03:17;;;;;;;11.55;4.8;;;;;;;-2.87;54.05566;96368.11;;;;
2022/02/27 03:04:19;;;;;;;11.55;4.8;;;;;;;-2.87;54.05566;96368.11;;;;
2022/02/27 03:05:19;;;;;;;11.55;4.8;;;;;;;-2.87;54.05566;96368.11;;;;
2022/02/27 03:06:20;;;;;;;11.55;4.8;;;;;;;-2.87;54.05566;96368.11;;;;
2022/02/27 03:07:20;;;;;;;11.55;4.8;;;;;;;-2.87;54.05566;96368.11;;;;
2022/02/27 03:08:21;;;;;;;11.55;4.8;;;;;;;-2.87;54.05566;96368.11;;;;
2022/02/27 03:09:21;;;;;;;9.3;4.85;;;;;;;-2.97;54.24316;96357.45;;;;
2022/02/27 03:10:22;;;;;;;9.3;4.85;;;;;;;-2.97;54.24316;96357.45;;;;
2022/02/27 03:11:22;;;;;;;9.3;4.85;;;;;;;-2.97;54.24316;96357.45;;;;
2022/02/27 03:12:23;;;;;;;9.3;4.85;;;;;;;-2.97;54.24316;96357.45;;;;
2022/02/27 03:13:24;;;;;;;9.3;4.85;;;;;;;-2.97;54.24316;96357.45;;;;
2022/02/27 03:14:25;;;;;;;9.3;4.85;;;;;;;-2.97;54.24316;96357.45;;;;
2022/02/27 03:15:25;;;;;;;9.3;4.85;;;;;;;-2.97;54.24316;96357.45;;;;
2022/02/27 03:16:26;;;;;;;9.3;4.85;;;;;;;-2.97;54.24316;96357.45;;;;
2022/02/27 03:17:27;;;;;;;9.3;4.85;;;;;;;-2.97;54.24316;96357.45;;;;
2022/02/27 03:18:27;;;;;;;9.3;4.85;;;;;;;-2.97;54.24316;96357.45;;;;
2022/02/27 03:19:28;;;;;;;7.35;5.050001;;;;;;;-2.96;54.47266;96360.05;;;;
2022/02/27 03:20:29;;;;;;;7.35;5.050001;;;;;;;-2.96;54.47266;96360.05;;;;
2022/02/27 03:21:30;;;;;;;7.35;5.050001;;;;;;;-2.96;54.47266;96360.05;;;;
2022/02/27 03:22:30;;;;;;;7.35;5.050001;;;;;;;-2.96;54.47266;96360.05;;;;
2022/02/27 03:23:31;;;;;;;7.35;5.050001;;;;;;;-2.96;54.47266;96360.05;;;;
2022/02/27 03:24:32;;;;;;;7.35;5.050001;;;;;;;-2.96;54.47266;96360.05;;;;
2022/02/27 03:25:32;;;;;;;7.35;5.050001;;;;;;;-2.96;54.47266;96360.05;;;;
2022/02/27 03:26:33;;;;;;;7.35;5.050001;;;;;;;-2.96;54.47266;96360.05;;;;
2022/02/27 03:27:33;;;;;;;7.35;5.050001;;;;;;;-2.96;54.47266;96360.05;;;;
2022/02/27 03:28:34;;;;;;;7.35;5.050001;;;;;;;-2.96;54.47266;96360.05;;;;
2022/02/27 03:29:34;;;;;;;7.35;5.050001;;;;;;;-2.96;54.47266;96360.05;;;;
2022/02/27 03:30:38;;;;;;;7.35;5.050001;;;;;;;-2.96;54.47266;96360.05;;;;
2022/02/27 03:31:39;;;;;;;7.35;5.050001;;;;;;;-2.96;54.47266;96360.05;;;;
2022/02/27 03:32:44;;;;;;;7.35;5.050001;;;;;;;-2.96;54.47266;96360.05;;;;
2022/02/27 03:33:44;;;;;;;7.35;5.050001;;;;;;;-2.96;54.47266;96360.05;;;;
2022/02/27 03:34:45;;;;;;;7.35;5.050001;;;;;;;-2.96;54.47266;96360.05;;;;
2022/02/27 03:35:46;;;;;;;7.35;5.050001;;;;;;;-2.96;54.47266;96360.05;;;;
2022/02/27 03:36:46;;;;;;;7.35;5.050001;;;;;;;-2.96;54.47266;96360.05;;;;
2022/02/27 03:37:49;;;;;;;7.35;5.050001;;;;;;;-2.96;54.47266;96360.05;;;;
2022/02/27 03:38:49;;;;;;;7.35;5.050001;;;;;;;-2.96;54.47266;96360.05;;;;
2022/02/27 03:39:51;;;;;;;7.35;5.050001;;;;;;;-2.96;54.47266;96360.05;;;;
2022/02/27 03:40:52;;;;;;;10.1;4.849999;;;;;;;-2.87;54.92188;96366.36;;;;
2022/02/27 03:41:52;;;;;;;10.1;4.849999;;;;;;;-2.87;54.92188;96366.36;;;;
2022/02/27 03:42:53;;;;;;;10.1;4.849999;;;;;;;-2.87;54.92188;96366.36;;;;
2022/02/27 03:43:53;;;;;;;10.1;4.849999;;;;;;;-2.87;54.92188;96366.36;;;;
2022/02/27 03:44:54;;;;;;;10.1;4.849999;;;;;;;-2.87;54.92188;96366.36;;;;
2022/02/27 03:45:54;;;;;;;10.1;4.849999;;;;;;;-2.87;54.92188;96366.36;;;;
2022/02/27 03:46:55;;;;;;;10.1;4.849999;;;;;;;-2.87;54.92188;96366.36;;;;
2022/02/27 03:47:55;;;;;;;10.1;4.849999;;;;;;;-2.87;54.92188;96366.36;;;;
2022/02/27 03:48:56;;;;;;;10.1;4.849999;;;;;;;-2.87;54.92188;96366.36;;;;
2022/02/27 03:49:56;;;;;;;10.1;4.849999;;;;;;;-2.87;54.92188;96366.36;;;;
2022/02/27 03:50:57;;;;;;;10.1;4.849999;;;;;;;-2.87;54.92188;96366.36;;;;
2022/02/27 03:51:57;;;;;;;11.85;4.75;;;;;;;-2.84;55.04004;96366.52;;;;
2022/02/27 03:52:58;;;;;;;11.85;4.75;;;;;;;-2.84;55.04004;96366.52;;;;
2022/02/27 03:53:58;;;;;;;11.85;4.75;;;;;;;-2.84;55.04004;96366.52;;;;
2022/02/27 03:54:59;;;;;;;11.85;4.75;;;;;;;-2.84;55.04004;96366.52;;;;
2022/02/27 03:56:00;;;;;;;11.85;4.75;;;;;;;-2.84;55.04004;96366.52;;;;
2022/02/27 03:57:00;;;;;;;11.85;4.75;;;;;;;-2.84;55.04004;96366.52;;;;
2022/02/27 03:58:03;;;;;;;11.85;4.75;;;;;;;-2.84;55.04004;96366.52;;;;
2022/02/27 03:59:03;;;;;;;11.85;4.75;;;;;;;-2.84;55.04004;96366.52;;;;
2022/02/27 04:00:04;;;;;;;11.85;4.75;;;;;;;-2.84;55.04004;96366.52;;;;
2022/02/27 04:01:07;;;;;;;11.85;4.75;;;;;;;-2.84;55.04004;96366.52;;;;
2022/02/27 04:02:08;;;;;;;11.8;4.85;;;;;;;-2.87;55.10938;96363.72;;;;
2022/02/27 04:03:10;;;;;;;11.8;4.85;;;;;;;-2.87;55.10938;96363.72;;;;
2022/02/27 04:04:10;;;;;;;11.8;4.85;;;;;;;-2.87;55.10938;96363.72;;;;
2022/02/27 04:05:11;;;;;;;11.8;4.85;;;;;;;-2.87;55.10938;96363.72;;;;
2022/02/27 04:06:12;;;;;;;11.8;4.85;;;;;;;-2.87;55.10938;96363.72;;;;
2022/02/27 04:07:13;;;;;;;11.8;4.85;;;;;;;-2.87;55.10938;96363.72;;;;
2022/02/27 04:08:13;;;;;;;11.8;4.85;;;;;;;-2.87;55.10938;96363.72;;;;
2022/02/27 04:09:14;;;;;;;11.8;4.85;;;;;;;-2.87;55.10938;96363.72;;;;
2022/02/27 04:10:14;;;;;;;11.8;4.85;;;;;;;-2.87;55.10938;96363.72;;;;
2022/02/27 04:11:15;;;;;;;11.8;4.85;;;;;;;-2.87;55.10938;96363.72;;;;
2022/02/27 04:12:15;;;;;;;11.8;4.85;;;;;;;-2.87;55.10938;96363.72;;;;
2022/02/27 04:13:16;;;;;;;8.000001;4.5;;;;;;;-2.99;55.21973;96366.92;;;;
2022/02/27 04:14:16;;;;;;;8.000001;4.5;;;;;;;-2.99;55.21973;96366.92;;;;
2022/02/27 04:15:17;;;;;;;8.000001;4.5;;;;;;;-2.99;55.21973;96366.92;;;;
2022/02/27 04:16:17;;;;;;;8.000001;4.5;;;;;;;-2.99;55.21973;96366.92;;;;
2022/02/27 04:17:18;;;;;;;8.000001;4.5;;;;;;;-2.99;55.21973;96366.92;;;;
2022/02/27 04:18:18;;;;;;;8.000001;4.5;;;;;;;-2.99;55.21973;96366.92;;;;
2022/02/27 04:19:19;;;;;;;8.000001;4.5;;;;;;;-2.99;55.21973;96366.92;;;;
2022/02/27 04:20:19;;;;;;;8.000001;4.5;;;;;;;-2.99;55.21973;96366.92;;;;
2022/02/27 04:21:20;;;;;;;8.000001;4.5;;;;;;;-2.99;55.21973;96366.92;;;;
2022/02/27 04:22:21;;;;;;;8.000001;4.5;;;;;;;-2.99;55.21973;96366.92;;;;
2022/02/27 04:23:21;;;;;;;9.799999;4.85;;;;;;;-3.15;55.34473;96375.75;;;;
2022/02/27 04:24:22;;;;;;;9.799999;4.85;;;;;;;-3.15;55.34473;96375.75;;;;
2022/02/27 04:25:23;;;;;;;9.799999;4.85;;;;;;;-3.15;55.34473;96375.75;;;;
2022/02/27 04:26:23;;;;;;;9.799999;4.85;;;;;;;-3.15;55.34473;96375.75;;;;
2022/02/27 04:27:24;;;;;;;9.799999;4.85;;;;;;;-3.15;55.34473;96375.75;;;;
2022/02/27 04:28:25;;;;;;;9.799999;4.85;;;;;;;-3.15;55.34473;96375.75;;;;
2022/02/27 04:29:25;;;;;;;9.799999;4.85;;;;;;;-3.15;55.34473;96375.75;;;;
2022/02/27 04:30:25;;;;;;;9.799999;4.85;;;;;;;-3.15;55.34473;96375.75;;;;
2022/02/27 04:31:26;;;;;;;9.799999;4.85;;;;;;;-3.15;55.34473;96375.75;;;;
2022/02/27 04:32:28;;;;;;;9.799999;4.85;;;;;;;-3.15;55.34473;96375.75;;;;
2022/02/27 04:33:28;;;;;;;9.799999;4.85;;;;;;;-3.15;55.34473;96375.75;;;;
2022/02/27 04:34:29;;;;;;;10.8;5.1;;;;;;;-3.28;55.50488;96371.96;;;;
2022/02/27 04:35:29;;;;;;;10.8;5.1;;;;;;;-3.28;55.50488;96371.96;;;;
2022/02/27 04:36:30;;;;;;;10.8;5.1;;;;;;;-3.28;55.50488;96371.96;;;;
2022/02/27 04:37:30;;;;;;;10.8;5.1;;;;;;;-3.28;55.50488;96371.96;;;;
2022/02/27 04:38:31;;;;;;;10.8;5.1;;;;;;;-3.28;55.50488;96371.96;;;;
2022/02/27 04:39:31;;;;;;;10.8;5.1;;;;;;;-3.28;55.50488;96371.96;;;;
2022/02/27 04:40:33;;;;;;;10.8;5.1;;;;;;;-3.28;55.50488;96371.96;;;;
2022/02/27 04:41:34;;;;;;;10.8;5.1;;;;;;;-3.28;55.50488;96371.96;;;;
2022/02/27 04:42:34;;;;;;;10.8;5.1;;;;;;;-3.28;55.50488;96371.96;;;;
2022/02/27 04:43:35;;;;;;;10.8;5.1;;;;;;;-3.28;55.50488;96371.96;;;;
2022/02/27 04:44:35;;;;;;;7.55;5.550001;;;;;;;-3.28;55.71289;96357.48;;;;
2022/02/27 04:45:36;;;;;;;7.55;5.550001;;;;;;;-3.28;55.71289;96357.48;;;;
2022/02/27 04:46:37;;;;;;;7.55;5.550001;;;;;;;-3.28;55.71289;96357.48;;;;
2022/02/27 04:47:37;;;;;;;7.55;5.550001;;;;;;;-3.28;55.71289;96357.48;;;;
2022/02/27 04:48:38;;;;;;;7.55;5.550001;;;;;;;-3.28;55.71289;96357.48;;;;
2022/02/27 04:49:38;;;;;;;7.55;5.550001;;;;;;;-3.28;55.71289;96357.48;;;;
2022/02/27 04:50:39;;;;;;;7.55;5.550001;;;;;;;-3.28;55.71289;96357.48;;;;
2022/02/27 04:51:40;;;;;;;7.55;5.550001;;;;;;;-3.28;55.71289;96357.48;;;;
2022/02/27 04:52:40;;;;;;;7.55;5.550001;;;;;;;-3.28;55.71289;96357.48;;;;
2022/02/27 04:53:41;;;;;;;7.55;5.550001;;;;;;;-3.28;55.71289;96357.48;;;;
2022/02/27 04:54:42;;;;;;;7.55;5.550001;;;;;;;-3.28;55.71289;96357.48;;;;
2022/02/27 04:55:43;;;;;;;7.55;5.550001;;;;;;;-3.28;55.71289;96357.48;;;;
2022/02/27 04:56:43;;;;;;;7.55;5.550001;;;;;;;-3.28;55.71289;96357.48;;;;
2022/02/27 04:57:44;;;;;;;7.55;5.550001;;;;;;;-3.28;55.71289;96357.48;;;;
2022/02/27 04:58:44;;;;;;;7.55;5.550001;;;;;;;-3.28;55.71289;96357.48;;;;
2022/02/27 04:59:45;;;;;;;7.55;5.550001;;;;;;;-3.28;55.71289;96357.48;;;;
2022/02/27 05:00:45;;;;;;;7.55;5.550001;;;;;;;-3.28;55.71289;96357.48;;;;
2022/02/27 05:01:46;;;;;;;7.55;5.550001;;;;;;;-3.28;55.71289;96357.48;;;;
2022/02/27 05:02:46;;;;;;;7.55;5.550001;;;;;;;-3.28;55.71289;96357.48;;;;
2022/02/27 05:03:47;;;;;;;7.55;5.550001;;;;;;;-3.28;55.71289;96357.48;;;;
2022/02/27 05:04:47;;;;;;;7.55;5.550001;;;;;;;-3.28;55.71289;96357.48;;;;
2022/02/27 05:05:48;;;;;;;7.55;5.550001;;;;;;;-3.28;55.71289;96357.48;;;;
2022/02/27 05:06:48;;;;;;;12.9;5.15;;;;;;;-3.29;56.23242;96359.28;;;;
2022/02/27 05:07:49;;;;;;;12.9;5.15;;;;;;;-3.29;56.23242;96359.28;;;;
2022/02/27 05:08:49;;;;;;;12.9;5.15;;;;;;;-3.29;56.23242;96359.28;;;;
2022/02/27 05:09:50;;;;;;;12.9;5.15;;;;;;;-3.29;56.23242;96359.28;;;;
2022/02/27 05:10:51;;;;;;;12.9;5.15;;;;;;;-3.29;56.23242;96359.28;;;;
2022/02/27 05:11:51;;;;;;;12.9;5.15;;;;;;;-3.29;56.23242;96359.28;;;;
2022/02/27 05:12:52;;;;;;;12.9;5.15;;;;;;;-3.29;56.23242;96359.28;;;;
2022/02/27 05:13:53;;;;;;;12.9;5.15;;;;;;;-3.29;56.23242;96359.28;;;;
2022/02/27 05:14:53;;;;;;;12.9;5.15;;;;;;;-3.29;56.23242;96359.28;;;;
2022/02/27 05:15:54;;;;;;;12.9;5.15;;;;;;;-3.29;56.23242;96359.28;;;;
2022/02/27 05:16:54;;;;;;;12.9;5.15;;;;;;;-3.29;56.23242;96359.28;;;;
2022/02/27 05:17:55;;;;;;;12.9;5.15;;;;;;;-3.29;56.23242;96359.28;;;;
2022/02/27 05:18:56;;;;;;;12.9;5.15;;;;;;;-3.29;56.23242;96359.28;;;;
2022/02/27 05:19:56;;;;;;;12.9;5.15;;;;;;;-3.29;56.23242;96359.28;;;;
2022/02/27 05:20:57;;;;;;;12.9;5.15;;;;;;;-3.29;56.23242;96359.28;;;;
2022/02/27 05:21:58;;;;;;;12.9;5.15;;;;;;;-3.29;56.23242;96359.28;;;;
2022/02/27 05:22:59;;;;;;;12.9;5.15;;;;;;;-3.29;56.23242;96359.28;;;;
2022/02/27 05:23:59;;;;;;;12.9;5.15;;;;;;;-3.29;56.23242;96359.28;;;;
2022/02/27 05:25:00;;;;;;;12.9;5.15;;;;;;;-3.29;56.23242;96359.28;;;;
2022/02/27 05:26:00;;;;;;;12.9;5.15;;;;;;;-3.29;56.23242;96359.28;;;;
2022/02/27 05:27:01;;;;;;;12.9;5.15;;;;;;;-3.29;56.23242;96359.28;;;;
2022/02/27 05:28:01;;;;;;;11.1;5.6;;;;;;;-3.46;56.49023;96353.23;;;;
2022/02/27 05:29:02;;;;;;;11.1;5.6;;;;;;;-3.46;56.49023;96353.23;;;;
2022/02/27 05:30:03;;;;;;;11.1;5.6;;;;;;;-3.46;56.49023;96353.23;;;;
2022/02/27 05:31:05;;;;;;;11.1;5.6;;;;;;;-3.46;56.49023;96353.23;;;;
2022/02/27 05:32:05;;;;;;;11.1;5.6;;;;;;;-3.46;56.49023;96353.23;;;;
2022/02/27 05:33:06;;;;;;;11.1;5.6;;;;;;;-3.46;56.49023;96353.23;;;;
2022/02/27 05:34:08;;;;;;;11.1;5.6;;;;;;;-3.46;56.49023;96353.23;;;;
2022/02/27 05:35:08;;;;;;;11.1;5.6;;;;;;;-3.46;56.49023;96353.23;;;;
2022/02/27 05:36:09;;;;;;;11.1;5.6;;;;;;;-3.46;56.49023;96353.23;;;;
2022/02/27 05:37:09;;;;;;;11.1;5.6;;;;;;;-3.46;56.49023;96353.23;;;;
2022/02/27 05:38:10;;;;;;;11;5.75;;;;;;;-3.61;56.70996;96374.26;;;;